Time;durP1;ratioP1;P1;durP2;ratioP2;P2;SDS_P1;SDS_P2;PMS_P1;PMS_P2;Temp;Humidity;BMP_temperature;BMP_pressure;BME280_temperature;BME280_humidity;BME280_pressure;Samples;Min_cycle;Max_cycle;Signal;HPM_P1;HPM_P2
2021/05/21 00:00:05;;;;;;;12.05;6.70;;;;;;;9.94;84.18;101006.69;5001102;28;20046;-78
2021/05/21 00:02:36;;;;;;;;;;;;;;;10.01;83.73;100997.31;4989075;28;20182;-78
2021/05/21 00:05:02;;;;;;;;;;;;;;;10.00;82.96;100986.97;5007438;28;19987;-78
2021/05/21 00:07:31;;;;;;;;;;;;;;;9.93;83.89;100992.75;5007549;28;19932;-77
2021/05/21 00:09:57;;;;;;;;;;;;;;;9.89;84.10;100987.94;5006604;28;20379;-78
2021/05/21 00:12:23;;;;;;;;;;;;;;;9.86;84.10;100981.16;5006273;28;19964;-79
2021/05/21 00:14:49;;;;;;;;;;;;;;;9.83;85.00;100975.34;5018004;28;20035;-78
2021/05/21 00:17:14;;;;;;;;;;;;;;;9.76;85.16;100967.22;5023310;28;19999;-78
2021/05/21 00:19:40;;;;;;;;;;;;;;;9.75;84.90;100960.31;5026965;28;20036;-77
2021/05/21 00:22:06;;;;;;;;;;;;;;;9.66;85.86;100959.34;5006952;28;20396;-77
2021/05/21 00:24:35;;;;;;;;;;;;;;;9.59;86.69;100950.38;5006476;28;19955;-76
2021/05/21 00:27:02;;;;;;;;;;;;;;;9.54;86.17;100950.78;4992905;28;19924;-76
2021/05/21 00:29:28;;;;;;;;;;;;;;;9.48;86.93;100942.63;5002637;28;19927;-75
2021/05/21 00:31:54;;;;;;;;;;;;;;;9.45;86.79;100932.41;4980249;28;19921;-76
2021/05/21 00:34:28;;;;;;;;;;;;;;;9.42;87.22;100927.44;4982022;28;19938;-76
2021/05/21 00:36:53;;;;;;;;;;;;;;;9.39;88.35;100923.31;4991592;28;20429;-77
2021/05/21 00:39:26;;;;;;;;;;;;;;;9.31;87.27;100923.16;5003928;28;19967;-76
2021/05/21 00:41:53;;;;;;;;;;;;;;;9.28;87.89;100910.34;5021405;28;19967;-77
2021/05/21 00:44:19;;;;;;;;;;;;;;;9.26;88.11;100902.63;5005983;28;19924;-77
2021/05/21 00:46:45;;;;;;;;;;;;;;;9.26;87.46;100907.84;5013477;28;19917;-76
2021/05/21 00:49:11;;;;;;;;;;;;;;;9.26;87.10;100907.03;5022574;28;19925;-79
2021/05/21 00:51:38;;;;;;;;;;;;;;;9.28;88.06;100898.06;5013561;28;19925;-76
2021/05/21 00:54:04;;;;;;;;;;;;;;;9.26;87.97;100896.56;5015909;28;19947;-78
2021/05/21 00:56:32;;;;;;;;;;;;;;;9.21;88.32;100890.88;5022467;28;19921;-77
2021/05/21 00:58:58;;;;;;;;;;;;;;;9.18;88.97;100888.56;5025458;28;20041;-77
2021/05/21 01:01:28;;;;;;;;;;;;;;;9.14;88.26;100888.00;5005594;28;20419;-77
2021/05/21 01:03:54;;;;;;;;;;;;;;;9.14;88.40;100877.53;5028726;28;20437;-78
2021/05/21 01:06:19;;;;;;;;;;;;;;;9.15;88.30;100871.31;5014775;28;19917;-78
2021/05/21 01:08:44;;;;;;;;;;;;;;;9.15;87.76;100874.78;5023207;28;19925;-78
2021/05/21 01:11:10;;;;;;;;;;;;;;;9.16;87.66;100867.75;5002769;28;19929;-76
2021/05/21 01:13:36;;;;;;;;;;;;;;;9.11;87.82;100860.28;5028679;28;19920;-76
2021/05/21 01:16:01;;;;;;;;;;;;;;;9.08;88.39;100867.56;5022010;28;19924;-77
2021/05/21 01:18:27;;;;;;;;;;;;;;;9.01;88.41;100848.97;5017667;28;19921;-77
2021/05/21 01:20:52;;;;;;;;;;;;;;;8.99;88.56;100844.84;5027671;28;20295;-77
2021/05/21 01:23:18;;;;;;;;;;;;;;;8.94;88.37;100840.00;5018484;28;19909;-78
2021/05/21 01:25:43;;;;;;;;;;;;;;;8.91;88.79;100828.03;5044540;28;19910;-78
2021/05/21 01:28:13;;;;;;;;;;;;;;;8.84;89.01;100826.91;5044852;28;19943;-78
2021/05/21 01:30:38;;;;;;;;;;;;;;;8.77;89.32;100817.94;5051610;28;19905;-75
2021/05/21 01:33:05;;;;;;;;;;;;;;;8.73;89.47;100821.78;5006930;28;19921;-77
2021/05/21 01:35:30;;;;;;;;;;;;;;;8.70;89.73;100809.81;5012668;28;19928;-78
2021/05/21 01:37:58;;;;;;;;;;;;;;;8.74;89.17;100811.19;4992172;28;19925;-77
2021/05/21 01:40:24;;;;;;;;;;;;;;;8.73;89.41;100799.06;5007212;28;19921;-77
2021/05/21 01:42:50;;;;;;;;;;;;;;;8.69;89.63;100792.44;5027330;28;20386;-77
2021/05/21 01:45:16;;;;;;;;;;;;;;;8.72;89.29;100792.19;5043264;28;19925;-76
2021/05/21 01:47:46;;;;;;;;;;;;;;;8.68;89.50;100792.56;4993091;28;19917;-77
2021/05/21 01:50:12;;;;;;;;;;;;;;;8.66;89.77;100781.41;5020279;28;19924;-78
2021/05/21 01:52:38;;;;;;;;;;;;;;;8.60;89.79;100776.72;5012561;28;20384;-77
2021/05/21 01:55:08;;;;;;;;;;;;;;;8.60;90.24;100776.72;5011510;28;19995;-76
2021/05/21 01:57:35;;;;;;;;;;;;;;;8.57;90.19;100770.00;5011484;28;19967;-76
2021/05/21 02:00:09;;;;;;;;;;;;;;;8.56;89.81;100769.13;4998920;28;19921;-77
2021/05/21 02:02:40;;;;;;;;;;;;;;;8.54;90.18;100760.59;5023030;28;19921;-80
2021/05/21 02:05:07;;;;;;;;;;;;;;;8.52;90.00;100754.69;5007738;28;20727;-79
2021/05/21 02:07:33;;;;;;;;;;;;;;;8.52;90.52;100752.06;4992291;28;19984;-79
2021/05/21 02:09:59;;;;;;;;;;;;;;;8.56;90.01;100752.63;5012271;28;20422;-77
2021/05/21 02:12:25;;;;;;;;;;;;;;;8.53;90.41;100748.50;5013159;28;19921;-79
2021/05/21 02:14:52;;;;;;;;;;;;;;;8.49;89.93;100739.25;5028443;28;19917;-79
2021/05/21 02:17:17;;;;;;;;;;;;;;;8.49;90.14;100730.59;5029017;28;19921;-78
2021/05/21 02:19:43;;;;;;;;;;;;;;;8.45;90.39;100735.25;5026634;28;19974;-78
2021/05/21 02:22:08;;;;;;;;;;;;;;;8.45;90.54;100731.81;5028954;28;19966;-78
2021/05/21 02:24:34;;;;;;;;;;;;;;;8.41;90.88;100720.78;5020006;28;19928;-78
2021/05/21 02:27:00;;;;;;;;;;;;;;;8.36;90.57;100717.72;5029586;28;19920;-78
2021/05/21 02:29:25;;;;;;;;;;;;;;;8.30;91.14;100718.25;5021731;28;20442;-77
2021/05/21 02:31:51;;;;;;;;;;;;;;;8.24;91.54;100711.78;5018930;28;20326;-77
2021/05/21 02:34:16;;;;;;;;;;;;;;;8.25;91.49;100707.38;5027613;28;19913;-77
2021/05/21 02:36:42;;;;;;;;;;;;;;;8.26;91.13;100699.41;5011258;28;19944;-78
2021/05/21 02:39:07;;;;;;;;;;;;;;;8.24;91.51;100687.44;5028353;28;19963;-77
2021/05/21 02:41:33;;;;;;;;;;;;;;;8.25;92.12;100691.69;5013183;28;19917;-77
2021/05/21 02:43:58;;;;;;;;;;;;;;;8.22;91.95;100687.56;5038150;28;19955;-78
2021/05/21 02:46:24;;;;;;;;;;;;;;;8.22;91.49;100684.13;5024425;28;19944;-77
2021/05/21 02:48:49;;;;;;;;;;;;;;;8.25;91.45;100676.84;5027254;28;19936;-77
2021/05/21 02:51:14;;;;;;;;;;;;;;;8.25;91.45;100670.78;5025609;28;20478;-77
2021/05/21 02:53:40;;;;;;;;;;;;;;;8.21;92.38;100664.16;5028183;28;19923;-77
2021/05/21 02:56:05;;;;;;;;;;;;;;;8.19;91.53;100662.53;5026966;28;19917;-77
2021/05/21 02:58:31;;;;;;;;;;;;;;;8.17;91.96;100661.84;5027803;28;19967;-77
2021/05/21 03:00:56;;;;;;;;;;;;;;;8.11;92.30;100656.31;5013392;28;19925;-77
2021/05/21 03:03:22;;;;;;;;;;;;;;;8.08;92.10;100649.56;5025970;28;19952;-77
2021/05/21 03:05:47;;;;;;;;;;;;;;;8.09;92.21;100645.16;5021165;28;19917;-77
2021/05/21 03:08:13;;;;;;;;;;;;;;;8.06;92.31;100648.88;5009560;28;19917;-77
2021/05/21 03:10:38;;;;;;;;;;;;;;;8.02;92.92;100631.78;5026878;28;19920;-78
2021/05/21 03:13:04;;;;;;;;;;;;;;;8.00;92.63;100633.72;5013141;28;19917;-77
2021/05/21 03:15:30;;;;;;;;;;;;;;;7.97;92.91;100629.59;5036732;28;19932;-77
2021/05/21 03:17:55;;;;;;;;;;;;;;;7.97;92.92;100628.78;5024670;28;19917;-78
2021/05/21 03:20:21;;;;;;;;;;;;;;;8.03;93.21;100628.25;5027492;28;19942;-77
2021/05/21 03:22:46;;;;;;;;;;;;;;;8.05;92.77;100628.13;5022665;28;20154;-77
2021/05/21 03:25:12;;;;;;;;;;;;;;;8.07;93.21;100620.97;5008721;28;19917;-77
2021/05/21 03:27:38;;;;;;;;;;;;;;;8.18;91.95;100620.84;5026941;28;19919;-77
2021/05/21 03:30:06;;;;;;;;;;;;;;;8.21;92.37;100614.53;5005359;28;19921;-77
2021/05/21 03:32:31;;;;;;;;;;;;;;;8.16;92.67;100614.94;5026596;28;20282;-77
2021/05/21 03:34:57;;;;;;;;;;;;;;;8.21;92.47;100593.63;5026920;28;19921;-78
2021/05/21 03:37:22;;;;;;;;;;;;;;;8.23;92.98;100597.78;5010127;28;19939;-77
2021/05/21 03:39:48;;;;;;;;;;;;;;;8.26;92.58;100594.88;5024151;28;20365;-79
2021/05/21 03:42:13;;;;;;;;;;;;;;;8.28;92.16;100592.13;5011516;28;19921;-77
2021/05/21 03:44:39;;;;;;;;;;;;;;;8.29;91.96;100588.56;5003423;28;19921;-76
2021/05/21 03:47:04;;;;;;;;;;;;;;;8.29;91.40;100578.94;5024395;28;19936;-77
2021/05/21 03:49:30;;;;;;;;;;;;;;;8.32;91.59;100572.59;5026232;28;19921;-77
2021/05/21 03:51:56;;;;;;;;;;;;;;;8.34;92.00;100571.53;5022287;28;19913;-77
2021/05/21 03:54:21;;;;;;;;;;;;;;;8.32;91.29;100567.38;5023891;28;20027;-76
2021/05/21 03:56:47;;;;;;;;;;;;;;;8.30;91.24;100566.69;5026591;28;19925;-77
2021/05/21 03:59:12;;;;;;;;;;;;;;;8.29;91.58;100560.63;5023436;28;19920;-76
2021/05/21 04:01:38;;;;;;;;;;;;;;;8.36;92.02;100547.84;5025008;28;19917;-77
2021/05/21 04:04:04;;;;;;;;;;;;;;;8.37;92.04;100552.94;5026285;28;20387;-76
2021/05/21 04:06:30;;;;;;;;;;;;;;;8.40;91.98;100551.84;5025444;28;19947;-78
2021/05/21 04:08:55;;;;;;;;;;;;;;;8.43;91.64;100550.78;5025387;28;19916;-78
2021/05/21 04:11:21;;;;;;;;;;;;;;;8.45;91.35;100546.22;5008549;28;19925;-78
2021/05/21 04:13:46;;;;;;;;;;;;;;;8.49;90.83;100542.38;5026463;28;19956;-79
2021/05/21 04:16:13;;;;;;;;;;;;;;;8.50;90.85;100536.19;5022794;28;19922;-77
2021/05/21 04:18:39;;;;;;;;;;;;;;;8.54;91.34;100533.16;5025964;28;19924;-77
2021/05/21 04:21:04;;;;;;;;;;;;;;;8.52;90.22;100535.09;5009218;28;19917;-76
2021/05/21 04:23:30;;;;;;;;;;;;;;;8.52;90.93;100526.44;5005814;28;19944;-78
2021/05/21 04:25:55;;;;;;;;;;;;;;;8.54;90.83;100522.69;5017922;28;19964;-78
2021/05/21 04:28:21;;;;;;;;;;;;;;;8.52;90.65;100513.34;5007656;28;19917;-78
2021/05/21 04:30:46;;;;;;;;;;;;;;;8.50;91.14;100515.28;5000045;28;20299;-77
2021/05/21 04:33:11;;;;;;;;;;;;;;;8.49;90.44;100511.00;5025243;28;20569;-78
2021/05/21 04:35:37;;;;;;;;;;;;;;;8.49;90.68;100508.41;5026400;28;19971;-78
2021/05/21 04:38:02;;;;;;;;;;;;;;;8.52;90.65;100495.88;5020654;28;20032;-77
2021/05/21 04:40:28;;;;;;;;;;;;;;;8.63;90.09;100500.13;5022568;28;20639;-79
2021/05/21 04:42:53;;;;;;;;;;;;;;;8.83;89.51;100502.72;5006383;28;20376;-77
2021/05/21 04:45:19;;;;;;;;;;;;;;;8.91;89.27;100500.19;5020417;28;19943;-77
2021/05/21 04:47:44;;;;;;;;;;;;;;;9.02;88.33;100505.25;5024939;28;19917;-77
2021/05/21 04:50:10;;;;;;;;;;;;;;;9.08;88.64;100501.25;5022155;28;19925;-78
2021/05/21 04:52:35;;;;;;;;;;;;;;;9.10;87.61;100497.56;5022587;28;20459;-78
2021/05/21 04:55:01;;;;;;;;;;;;;;;9.07;88.02;100489.16;5005825;28;19939;-78
2021/05/21 04:57:27;;;;;;;;;;;;;;;9.05;87.70;100488.47;5011604;28;19921;-78
2021/05/21 04:59:53;;;;;;;;;;;;;;;9.06;88.08;100479.66;5009329;28;20011;-77
2021/05/21 05:02:18;;;;;;;;;;;;;;;9.07;87.46;100484.75;5035869;28;20042;-77
2021/05/21 05:04:44;;;;;;;;;;;;;;;9.03;88.13;100474.72;5028127;28;19924;-79
2021/05/21 05:07:09;;;;;;;;;;;;;;;9.05;88.24;100470.97;5011365;28;19956;-77
2021/05/21 05:09:34;;;;;;;;;;;;;;;9.06;88.16;100467.41;5029501;28;20035;-77
2021/05/21 05:12:00;;;;;;;;;;;;;;;9.10;87.14;100465.34;5027380;28;20651;-77
2021/05/21 05:14:26;;;;;;;;;;;;;;;9.13;87.55;100465.03;5026534;28;20762;-77
2021/05/21 05:16:51;;;;;;;;;;;;;;;9.12;88.42;100466.84;5022036;28;19963;-78
2021/05/21 05:19:17;;;;;;;;;;;;;;;9.15;86.80;100457.84;5028954;28;20004;-77
2021/05/21 05:21:43;;;;;;;;;;;;;;;9.19;87.55;100455.78;5009108;28;20467;-79
2021/05/21 05:24:12;;;;;;;;;;;;;;;9.20;87.37;100455.63;5027097;28;19917;-78
2021/05/21 05:26:37;;;;;;;;;;;;;;;9.22;87.87;100447.66;5029849;28;19925;-78
2021/05/21 05:29:03;;;;;;;;;;;;;;;9.29;87.72;100443.50;5006184;28;19968;-78
2021/05/21 05:31:28;;;;;;;;;;;;;;;9.33;87.17;100450.06;5037487;28;20346;-78
2021/05/21 05:33:53;;;;;;;;;;;;;;;9.34;87.01;100444.69;5034461;28;19917;-78
2021/05/21 05:36:19;;;;;;;;;;;;;;;9.39;87.06;100440.81;5030369;28;19917;-77
2021/05/21 05:38:44;;;;;;;;;;;;;;;9.49;87.20;100436.34;5018203;28;19921;-77
2021/05/21 05:41:10;;;;;;;;;;;;;;;9.64;85.75;100431.44;5007747;28;19921;-76
2021/05/21 05:43:35;;;;;;;;;;;;;;;9.74;85.82;100429.59;4997158;28;19918;-78
2021/05/21 05:46:01;;;;;;;;;;;;;;;9.79;85.62;100418.66;5011136;28;19952;-76
2021/05/21 05:48:28;;;;;;;;;;;;;;;9.87;85.02;100413.47;5024612;28;19975;-77
2021/05/21 05:50:54;;;;;;;;;;;;;;;9.89;85.19;100417.59;5007533;28;20350;-76
2021/05/21 05:53:19;;;;;;;;;;;;;;;9.89;84.73;100411.56;4992304;28;19976;-77
2021/05/21 05:55:45;;;;;;;;;;;;;;;9.96;84.22;100404.72;5009151;28;20059;-78
2021/05/21 05:58:12;;;;;;;;;;;;;;;10.03;84.44;100400.53;5009980;28;20004;-77
2021/05/21 06:00:37;;;;;;;;;;;;;;;10.03;84.52;100402.31;5026035;28;19977;-78
2021/05/21 06:03:06;;;;;;;;;;;;;;;10.00;85.32;100392.13;5025420;28;19921;-78
2021/05/21 06:05:32;;;;;;;;;;;;;;;9.98;84.39;100388.84;5012255;28;19917;-77
2021/05/21 06:07:58;;;;;;;;;;;;;;;9.96;85.25;100390.78;5010915;28;19925;-77
2021/05/21 06:10:23;;;;;;;;;;;;;;;9.96;85.32;100382.94;5004235;28;19931;-77
2021/05/21 06:12:49;;;;;;;;;;;;;;;10.05;85.40;100382.03;5017212;28;19943;-77
2021/05/21 06:15:14;;;;;;;;;;;;;;;10.12;84.52;100385.69;5029135;28;20448;-77
2021/05/21 06:17:40;;;;;;;;;;;;;;;10.25;84.81;100383.50;5021671;28;19929;-77
2021/05/21 06:20:05;;;;;;;;;;;;;;;10.36;84.00;100381.63;5025629;28;19943;-78
2021/05/21 06:22:31;;;;;;;;;;;;;;;10.45;84.40;100384.16;5012116;28;19944;-78
2021/05/21 06:25:05;;;;;;;;;;;;;;;10.52;84.00;100385.16;5027435;28;20458;-77
2021/05/21 06:27:32;;;;;;;;;;;;;;;10.51;84.05;100364.38;5017882;28;20277;-77
2021/05/21 06:29:58;;;;;;;;;;;;;;;10.57;84.19;100365.53;5010440;28;19936;-79
2021/05/21 06:32:23;;;;;;;;;;;;;;;10.64;84.57;100364.78;5006728;28;19924;-78
2021/05/21 06:34:48;;;;;;;;;;;;;;;10.76;83.54;100365.31;5027794;28;19922;-78
2021/05/21 06:37:15;;;;;;;;;;;;;;;10.87;83.66;100369.47;5029814;28;19921;-78
2021/05/21 06:39:42;;;;;;;;;;;;;;;11.02;83.09;100365.25;5010231;28;19916;-78
2021/05/21 06:42:07;;;;;;;;;;;;;;;11.17;82.38;100369.88;5025988;28;19921;-77
2021/05/21 06:44:33;;;;;;;;;;;;;;;11.31;82.46;100371.91;5019795;28;20319;-78
2021/05/21 06:46:58;;;;;;;;;;;;;;;11.40;82.86;100363.06;5022989;28;19951;-78
2021/05/21 06:49:24;;;;;;;;;;;;;;;11.49;82.28;100356.03;5022214;28;19925;-78
2021/05/21 06:51:50;;;;;;;;;;;;;;;11.65;81.72;100356.03;4992202;28;19921;-77
2021/05/21 06:54:15;;;;;;;;;;;;;;;11.89;79.70;100357.03;4990404;28;19959;-76
2021/05/21 06:56:41;;;;;;;;;;;;;;;12.17;77.98;100354.09;5011289;28;19944;-78
2021/05/21 06:59:06;;;;;;;;;;;;;;;12.46;77.59;100351.72;5021625;28;19970;-77
2021/05/21 07:01:31;;;;;;;;;;;;;;;12.66;76.47;100354.81;5014557;28;19917;-77
2021/05/21 07:03:58;;;;;;;;;;;;;;;13.00;74.93;100353.69;5024868;28;19925;-79
2021/05/21 07:06:23;;;;;;;;;;;;;;;13.23;74.57;100340.56;5007125;28;19923;-78
2021/05/21 07:08:50;;;;;;;;;;;;;;;13.69;73.18;100336.34;5016495;28;19921;-78
2021/05/21 07:11:15;;;;;;;;;;;;;;;14.14;71.89;100324.06;5020421;28;19921;-77
2021/05/21 07:13:41;;;;;;;;;;;;;;;14.41;70.41;100318.19;5003888;28;19929;-79
2021/05/21 07:16:06;;;;;;;;;;;;;;;14.49;71.58;100321.75;5023546;28;19921;-78
2021/05/21 07:18:44;;;;;;;;;;;;;;;14.41;69.55;100310.28;5021989;28;19917;-79
2021/05/21 07:21:09;;;;;;;;;;;;;;;14.23;69.82;100317.72;5022987;28;19947;-78
2021/05/21 07:23:35;;;;;;;;;;;;;;;14.13;70.74;100315.34;5008061;28;19917;-79
2021/05/21 07:26:00;;;;;;;;;;;;;;;14.06;74.17;100313.63;5016323;28;20031;-78
2021/05/21 07:28:26;;;;;;;;;;;;;;;13.97;72.44;100313.69;5022534;28;20449;-78
2021/05/21 07:30:52;;;;;;;;;;;;;;;14.00;71.52;100307.25;5017643;28;20020;-79
2021/05/21 07:33:17;;;;;;;;;;;;;;;14.10;69.09;100307.78;5023641;28;19975;-79
2021/05/21 07:35:42;;;;;;;;;;;;;;;14.16;68.48;100298.34;5025706;28;19925;-79
2021/05/21 07:38:09;;;;;;;;;;;;;;;14.50;67.47;100302.25;5005590;28;19925;-78
2021/05/21 07:40:35;;;;;;;;;;;;;;;14.92;67.41;100298.16;5028123;28;19917;-79
2021/05/21 07:43:13;;;;;;;;;;;;;;;15.40;67.18;100306.38;5018317;28;20303;-78
2021/05/21 07:45:39;;;;;;;;;;;;;;;15.29;63.65;100296.28;5015637;28;19928;-79
2021/05/21 07:48:04;;;;;;;;;;;;;;;15.04;64.63;100288.72;5024896;28;20024;-79
2021/05/21 07:50:31;;;;;;;;;;;;;;;14.87;65.15;100295.25;4997944;28;19929;-78
2021/05/21 07:52:57;;;;;;;;;;;;;;;14.56;67.57;100283.88;5010215;28;19917;-78
2021/05/21 07:55:22;;;;;;;;;;;;;;;14.27;67.75;100279.44;5023120;28;20307;-78
2021/05/21 07:57:47;;;;;;;;;;;;;;;14.16;71.51;100285.16;5002539;28;20403;-78
2021/05/21 08:00:13;;;;;;;;;;;;;;;14.01;69.95;100282.50;5025724;28;20398;-78
2021/05/21 08:02:40;;;;;;;;;;;;;;;13.91;71.01;100274.84;5027566;28;19924;-78
2021/05/21 08:05:06;;;;;;;;;;;;;;;13.78;72.40;100277.28;5024583;28;19924;-78
2021/05/21 08:07:32;;;;;;;;;;;;;;;13.74;70.21;100281.28;5021835;28;19917;-77
2021/05/21 08:09:57;;;;;;;;;;;;;;;13.60;70.48;100280.25;5008070;28;21145;-77
2021/05/21 08:12:23;;;;;;;;;;;;;;;13.49;73.06;100293.84;5028371;28;19917;-76
2021/05/21 08:14:48;;;;;;;;;;;;;;;13.33;72.67;100297.41;5023921;28;20477;-77
2021/05/21 08:17:14;;;;;;;;;;;;;;;13.20;73.53;100301.41;5015311;28;19949;-76
2021/05/21 08:19:40;;;;;;;;;;;;;;;12.94;73.40;100300.88;5024768;28;19927;-74
2021/05/21 08:22:05;;;;;;;;;;;;;;;12.46;77.78;100321.97;5014354;28;19967;-77
2021/05/21 08:24:31;;;;;;;;;;;;;;;11.79;80.57;100337.97;5023243;28;19982;-77
2021/05/21 08:26:56;;;;;;;;;;;;;;;11.48;84.86;100354.38;5017416;28;19925;-77
2021/05/21 08:29:21;;;;;;;;;;;;;;;11.41;86.61;100363.88;5024233;28;19924;-78
2021/05/21 08:31:47;;;;;;;;;;;;;;;11.39;85.99;100361.41;5006544;28;19921;-79
2021/05/21 08:34:12;;;;;;;;;;;;;;;11.29;86.42;100366.00;5019349;28;19952;-78
2021/05/21 08:36:38;;;;;;;;;;;;;;;11.28;86.39;100361.72;5009184;28;19925;-78
2021/05/21 08:39:03;;;;;;;;;;;;;;;11.13;88.08;100366.75;4982648;28;19925;-78
2021/05/21 08:41:30;;;;;;;;;;;;;;;11.01;88.37;100363.59;5011985;28;20360;-80
2021/05/21 08:43:56;;;;;;;;;;;;;;;11.03;87.03;100359.00;5010446;28;19921;-78
2021/05/21 08:46:22;;;;;;;;;;;;;;;10.96;86.06;100352.75;5016878;28;19917;-77
2021/05/21 08:48:48;;;;;;;;;;;;;;;11.08;83.87;100350.69;5043811;28;19925;-78
2021/05/21 08:51:15;;;;;;;;;;;;;;;11.22;84.88;100351.84;5028143;28;19968;-77
2021/05/21 08:53:41;;;;;;;;;;;;;;;11.29;83.75;100345.81;5014964;28;20442;-78
2021/05/21 08:56:07;;;;;;;;;;;;;;;11.28;82.43;100352.06;5028102;28;19925;-76
2021/05/21 08:58:33;;;;;;;;;;;;;;;11.36;82.42;100347.78;5007253;28;19924;-77
2021/05/21 09:00:58;;;;;;;;;;;;;;;11.37;81.75;100350.25;5012140;28;19929;-77
2021/05/21 09:03:25;;;;;;;;;;;;;;;11.41;83.48;100338.44;5012818;28;19975;-77
2021/05/21 09:06:00;;;;;;;;;;;;;;;11.47;84.72;100335.19;5010759;28;20350;-78
2021/05/21 09:08:33;;;;;;;;;;;;;;;11.58;84.79;100336.66;5009424;28;19952;-76
2021/05/21 09:10:58;;;;;;;;;;;;;;;11.65;82.23;100337.63;5026269;28;19936;-76
2021/05/21 09:13:32;;;;;;;;;;;;;;;11.90;81.09;100326.34;5029566;28;19920;-77
2021/05/21 09:15:58;;;;;;;;;;;;;;;12.41;77.64;100333.03;5012113;28;20263;-76
2021/05/21 09:18:23;;;;;;;;;;;;;;;12.96;73.04;100328.69;5003936;28;20003;-76
2021/05/21 09:20:51;;;;;;;;;;;;;;;13.49;72.31;100322.84;5021038;28;20489;-76
2021/05/21 09:23:17;;;;;;;;;;;;;;;13.85;69.31;100320.41;5020059;28;19918;-77
2021/05/21 09:25:47;;;;;;;;;;;;;;;14.01;69.13;100314.97;5023413;28;19971;-76
2021/05/21 09:28:32;;;;;;;;;;;;;;;13.95;68.02;100320.94;5027186;28;20008;-76
2021/05/21 09:31:15;;;;;;;;;;;;;;;14.32;68.15;100310.56;5006187;28;19924;-76
2021/05/21 09:33:42;;;;;;;;;;;;;;;14.45;67.76;100310.72;5025793;28;19940;-76
2021/05/21 09:36:09;;;;;;;;;;;;;;;14.40;66.71;100307.81;5024658;28;19920;-77
2021/05/21 09:38:45;;;;;;;;;;;;;;;14.42;67.19;100308.44;5025164;28;19921;-77
2021/05/21 09:41:10;;;;;;;;;;;;;;;14.20;67.90;100308.38;5012616;28;20480;-78
2021/05/21 09:43:36;;;;;;;;;;;;;;;14.35;68.76;100299.63;5021348;28;19917;-78
2021/05/21 09:46:11;;;;;;;;;;;;;;;14.55;67.51;100287.50;5013604;28;19921;-77
2021/05/21 09:48:37;;;;;;;;;;;;;;;14.77;67.10;100285.78;5014400;28;19920;-76
2021/05/21 09:51:03;;;;;;;;;;;;;;;15.02;66.94;100276.72;5023707;28;19921;-77
2021/05/21 09:53:29;;;;;;;;;;;;;;;14.50;64.85;100275.88;5013726;28;19937;-77
2021/05/21 09:55:55;;;;;;;;;;;;;;;14.98;66.24;100281.56;5017442;28;20470;-75
2021/05/21 09:58:23;;;;;;;;;;;;;;;15.55;65.60;100272.75;5021230;28;19917;-76
2021/05/21 10:01:05;;;;;;;;;;;;;;;15.68;60.90;100271.22;5026125;28;19939;-77
2021/05/21 10:03:31;;;;;;;;;;;;;;;16.04;59.00;100267.66;5019237;28;19974;-77
2021/05/21 10:05:56;;;;;;;;;;;;;;;16.12;58.66;100262.19;5028954;28;19917;-77
2021/05/21 10:08:22;;;;;;;;;;;;;;;16.44;56.11;100257.28;5010636;28;19921;-77
2021/05/21 10:10:47;;;;;;;;;;;;;;;16.72;56.08;100263.28;5022211;28;19925;-78
2021/05/21 10:13:13;;;;;;;;;;;;;;;17.01;55.55;100258.75;5027197;28;19952;-76
2021/05/21 10:15:38;;;;;;;;;;;;;;;17.06;51.72;100253.63;5018119;28;19971;-77
2021/05/21 10:18:05;;;;;;;;;;;;;;;16.96;54.86;100255.06;5014194;28;19921;-77
2021/05/21 10:20:31;;;;;;;;;;;;;;;16.80;53.47;100248.25;5014467;28;19921;-77
2021/05/21 10:22:57;;;;;;;;;;;;;;;16.15;51.72;100248.59;5016095;28;19917;-77
2021/05/21 10:25:27;;;;;;;;;;;;;;;16.32;51.73;100239.31;5012102;28;19960;-77
2021/05/21 10:27:54;;;;;;;;;;;;;;;16.55;54.45;100239.00;5014097;28;19916;-75
2021/05/21 10:30:21;;;;;;;;;;;;;;;16.86;54.57;100247.50;5014287;28;19929;-77
2021/05/21 10:32:47;;;;;;;;;;;;;;;16.77;53.30;100260.06;5017209;28;20008;-76
2021/05/21 10:35:13;;;;;;;;;;;;;;;16.32;55.35;100260.47;5018095;28;20054;-77
2021/05/21 10:38:16;;;;;;;;;;;;;;;16.69;57.05;100249.66;5017237;28;20576;-77
2021/05/21 10:41:16;;;;;;;;;;;;;;;17.19;54.16;100236.13;5018260;28;19974;-77
2021/05/21 10:43:54;;;;;;;;;;;;;;;17.62;53.87;100239.19;5027349;28;19917;-78
2021/05/21 10:46:32;;;;;;;;;;;;;;;18.00;53.21;100245.72;5027632;28;19920;-77
2021/05/21 10:48:57;;;;;;;;;;;;;;;17.89;50.59;100240.03;5019517;28;19923;-75
2021/05/21 10:51:24;;;;;;;;;;;;;;;17.33;53.29;100240.44;5016722;28;19925;-78
2021/05/21 10:54:09;;;;;;;;;;;;;;;16.49;56.30;100242.44;5021177;28;20023;-77
2021/05/21 10:56:44;;;;;;;;;;;;;;;15.83;58.11;100242.91;5014060;28;19917;-79
2021/05/21 10:59:10;;;;;;;;;;;;;;;15.45;59.35;100237.91;4998558;28;19921;-76
2021/05/21 11:01:45;;;;;;;;;;;;;;;15.15;63.63;100245.97;5013592;28;19960;-78
2021/05/21 11:04:13;;;;;;;;;;;;;;;15.16;64.78;100247.63;5019158;28;19916;-78
2021/05/21 11:06:43;;;;;;;;;;;;;;;15.23;62.09;100231.00;5030721;28;19921;-78
2021/05/21 11:09:09;;;;;;;;;;;;;;;15.08;60.96;100234.53;5028712;28;19967;-76
2021/05/21 11:11:50;;;;;;;;;;;;;;;15.21;61.02;100235.66;5027802;28;20339;-77
2021/05/21 11:14:19;;;;;;;;;;;;;;;15.33;57.98;100234.97;5030133;28;19936;-77
2021/05/21 11:16:51;;;;;;;;;;;;;;;15.46;58.87;100233.44;5002340;28;19928;-77
2021/05/21 11:19:20;;;;;;;;;;;;;;;15.29;58.46;100238.16;5032383;28;19927;-79
2021/05/21 11:21:49;;;;;;;;;;;;;;;15.00;57.95;100242.56;5011733;28;19920;-78
2021/05/21 11:24:14;;;;;;;;;;;;;;;14.88;58.67;100244.91;5018616;28;20307;-77
2021/05/21 11:26:42;;;;;;;;;;;;;;;14.88;57.90;100242.25;5024065;28;19921;-78
2021/05/21 11:29:08;;;;;;;;;;;;;;;15.07;60.47;100248.75;5017548;28;20383;-76
2021/05/21 11:31:39;;;;;;;;;;;;;;;15.32;60.56;100251.00;5016071;28;19929;-77
2021/05/21 11:34:09;;;;;;;;;;;;;;;15.25;58.65;100252.75;5022064;28;19921;-77
2021/05/21 11:36:35;;;;;;;;;;;;;;;15.18;59.01;100239.47;5007485;28;20000;-77
2021/05/21 11:39:02;;;;;;;;;;;;;;;15.22;60.78;100240.75;5007721;28;20223;-77
2021/05/21 11:41:28;;;;;;;;;;;;;;;15.19;61.96;100241.13;5008117;28;20391;-78
2021/05/21 11:43:54;;;;;;;;;;;;;;;15.01;60.31;100243.38;5008307;28;19924;-77
2021/05/21 11:46:20;;;;;;;;;;;;;;;14.87;60.69;100250.34;5025038;28;19925;-76
2021/05/21 11:48:49;;;;;;;;;;;;;;;14.77;63.33;100246.19;5026527;28;19921;-77
2021/05/21 11:51:21;;;;;;;;;;;;;;;14.64;62.11;100261.88;5006378;28;19996;-77
2021/05/21 11:53:47;;;;;;;;;;;;;;;14.48;64.64;100251.50;5024635;28;19953;-77
2021/05/21 11:56:13;;;;;;;;;;;;;;;14.32;66.19;100263.06;5027004;28;19999;-77
2021/05/21 11:58:38;;;;;;;;;;;;;;;14.06;66.69;100260.88;5013362;28;20036;-76
2021/05/21 12:01:05;;;;;;;;;;;;;;;13.77;67.79;100280.94;5017039;28;20379;-77
2021/05/21 12:03:31;;;;;;;;;;;;;;;13.39;72.71;100273.00;5033759;28;20417;-76
2021/05/21 12:05:57;;;;;;;;;;;;;;;13.10;73.00;100260.50;5009370;28;19919;-77
2021/05/21 12:08:25;;;;;;;;;;;;;;;12.88;75.43;100270.81;5019405;28;19940;-75
2021/05/21 12:10:54;;;;;;;;;;;;;;;12.75;77.43;100263.50;5023633;28;19925;-79
2021/05/21 12:13:20;;;;;;;;;;;;;;;12.75;75.35;100258.25;5027943;28;20455;-75
2021/05/21 12:15:45;;;;;;;;;;;;;;;12.78;75.13;100264.97;5015134;28;20007;-76
2021/05/21 12:18:11;;;;;;;;;;;;;;;12.83;73.93;100255.56;5022158;28;19921;-75
2021/05/21 12:20:36;;;;;;;;;;;;;;;12.91;73.68;100249.41;5028865;28;20551;-76
2021/05/21 12:23:05;;;;;;;;;;;;;;;12.93;74.50;100250.06;5026722;28;19917;-77
2021/05/21 12:25:32;;;;;;;;;;;;;;;13.01;71.27;100228.13;5018126;28;19995;-78
2021/05/21 12:28:01;;;;;;;;;;;;;;;13.17;71.80;100219.31;5011329;28;19922;-76
2021/05/21 12:30:27;;;;;;;;;;;;;;;13.48;69.87;100221.88;5022838;28;20379;-77
2021/05/21 12:32:53;;;;;;;;;;;;;;;13.93;65.70;100219.31;5030159;28;19921;-77
2021/05/21 12:35:19;;;;;;;;;;;;;;;14.28;68.42;100212.50;5029141;28;19917;-76
2021/05/21 12:37:46;;;;;;;;;;;;;;;14.61;63.88;100217.38;5005971;28;19920;-77